sensor_id;sensor_type;location;lat;lon;timestamp;P1;durP1;ratioP1;P2;durP2;ratioP2
79212;SDS011;68639;52.380;9.822;2023-07-29T00:02:18;5.18;;;1.70;;
79212;SDS011;68639;52.380;9.822;2023-07-29T00:04:43;4.05;;;1.80;;
79212;SDS011;68639;52.380;9.822;2023-07-29T00:07:09;2.35;;;1.60;;
79212;SDS011;68639;52.380;9.822;2023-07-29T00:09:34;3.05;;;2.00;;
79212;SDS011;68639;52.380;9.822;2023-07-29T00:11:59;4.63;;;2.13;;
79212;SDS011;68639;52.380;9.822;2023-07-29T00:14:24;3.15;;;1.70;;
79212;SDS011;68639;52.380;9.822;2023-07-29T00:16:49;2.72;;;1.80;;
79212;SDS011;68639;52.380;9.822;2023-07-29T00:19:15;4.00;;;1.75;;
79212;SDS011;68639;52.380;9.822;2023-07-29T00:21:40;8.30;;;1.98;;
79212;SDS011;68639;52.380;9.822;2023-07-29T00:24:06;2.85;;;1.80;;
79212;SDS011;68639;52.380;9.822;2023-07-29T00:26:31;6.32;;;1.90;;
79212;SDS011;68639;52.380;9.822;2023-07-29T00:28:57;2.53;;;1.55;;
79212;SDS011;68639;52.380;9.822;2023-07-29T00:31:22;4.05;;;1.58;;
79212;SDS011;68639;52.380;9.822;2023-07-29T00:33:47;4.90;;;1.85;;
79212;SDS011;68639;52.380;9.822;2023-07-29T00:36:13;2.35;;;1.40;;
79212;SDS011;68639;52.380;9.822;2023-07-29T00:38:38;3.13;;;1.52;;
79212;SDS011;68639;52.380;9.822;2023-07-29T00:41:03;3.75;;;1.70;;
79212;SDS011;68639;52.380;9.822;2023-07-29T00:43:29;1.88;;;1.40;;
79212;SDS011;68639;52.380;9.822;2023-07-29T00:45:54;4.30;;;1.63;;
79212;SDS011;68639;52.380;9.822;2023-07-29T00:48:19;3.55;;;1.55;;
79212;SDS011;68639;52.380;9.822;2023-07-29T00:50:45;3.22;;;1.70;;
79212;SDS011;68639;52.380;9.822;2023-07-29T00:53:10;2.90;;;1.80;;
79212;SDS011;68639;52.380;9.822;2023-07-29T00:55:35;2.20;;;1.70;;
79212;SDS011;68639;52.380;9.822;2023-07-29T00:58:01;2.60;;;1.50;;
79212;SDS011;68639;52.380;9.822;2023-07-29T01:00:27;2.35;;;1.65;;
79212;SDS011;68639;52.380;9.822;2023-07-29T01:02:52;3.08;;;1.80;;
79212;SDS011;68639;52.380;9.822;2023-07-29T01:05:19;2.85;;;1.90;;
79212;SDS011;68639;52.380;9.822;2023-07-29T01:10:14;7.03;;;2.10;;
79212;SDS011;68639;52.380;9.822;2023-07-29T01:12:47;6.88;;;2.33;;
79212;SDS011;68639;52.380;9.822;2023-07-29T01:17:43;5.17;;;2.30;;
79212;SDS011;68639;52.380;9.822;2023-07-29T01:20:09;2.90;;;2.10;;
79212;SDS011;68639;52.380;9.822;2023-07-29T01:22:36;4.88;;;2.10;;
79212;SDS011;68639;52.380;9.822;2023-07-29T01:25:01;3.92;;;2.33;;
79212;SDS011;68639;52.380;9.822;2023-07-29T01:27:27;3.00;;;2.20;;
79212;SDS011;68639;52.380;9.822;2023-07-29T01:29:52;3.03;;;2.20;;
79212;SDS011;68639;52.380;9.822;2023-07-29T01:32:21;2.95;;;2.17;;
79212;SDS011;68639;52.380;9.822;2023-07-29T01:34:48;2.97;;;2.22;;
79212;SDS011;68639;52.380;9.822;2023-07-29T01:37:18;2.60;;;2.00;;
79212;SDS011;68639;52.380;9.822;2023-07-29T01:39:45;2.30;;;2.00;;
79212;SDS011;68639;52.380;9.822;2023-07-29T01:42:11;4.13;;;2.00;;
79212;SDS011;68639;52.380;9.822;2023-07-29T01:44:37;3.40;;;1.73;;
79212;SDS011;68639;52.380;9.822;2023-07-29T01:47:02;5.45;;;2.10;;
79212;SDS011;68639;52.380;9.822;2023-07-29T01:49:27;3.28;;;2.10;;
79212;SDS011;68639;52.380;9.822;2023-07-29T01:51:53;2.85;;;1.95;;
79212;SDS011;68639;52.380;9.822;2023-07-29T01:54:18;3.53;;;1.90;;
79212;SDS011;68639;52.380;9.822;2023-07-29T01:56:43;3.03;;;2.20;;
79212;SDS011;68639;52.380;9.822;2023-07-29T01:59:08;3.50;;;2.08;;
79212;SDS011;68639;52.380;9.822;2023-07-29T02:01:33;4.93;;;2.10;;
79212;SDS011;68639;52.380;9.822;2023-07-29T02:03:59;3.85;;;2.00;;
79212;SDS011;68639;52.380;9.822;2023-07-29T02:06:24;3.05;;;1.77;;
79212;SDS011;68639;52.380;9.822;2023-07-29T02:08:50;6.72;;;1.90;;
79212;SDS011;68639;52.380;9.822;2023-07-29T02:11:16;4.40;;;1.95;;
79212;SDS011;68639;52.380;9.822;2023-07-29T02:13:41;2.70;;;1.80;;
79212;SDS011;68639;52.380;9.822;2023-07-29T02:16:06;5.60;;;1.90;;
79212;SDS011;68639;52.380;9.822;2023-07-29T02:18:32;3.15;;;1.88;;
79212;SDS011;68639;52.380;9.822;2023-07-29T02:20:57;5.10;;;2.17;;
79212;SDS011;68639;52.380;9.822;2023-07-29T02:23:22;4.28;;;2.17;;
79212;SDS011;68639;52.380;9.822;2023-07-29T02:25:48;3.08;;;2.08;;
79212;SDS011;68639;52.380;9.822;2023-07-29T02:28:13;3.10;;;2.20;;
79212;SDS011;68639;52.380;9.822;2023-07-29T02:30:40;2.55;;;2.00;;
79212;SDS011;68639;52.380;9.822;2023-07-29T02:33:05;3.72;;;2.05;;
79212;SDS011;68639;52.380;9.822;2023-07-29T02:35:31;2.38;;;1.80;;
79212;SDS011;68639;52.380;9.822;2023-07-29T02:37:56;3.42;;;2.15;;
79212;SDS011;68639;52.380;9.822;2023-07-29T02:40:21;5.32;;;1.80;;
79212;SDS011;68639;52.380;9.822;2023-07-29T02:42:47;4.07;;;1.83;;
79212;SDS011;68639;52.380;9.822;2023-07-29T02:45:13;4.90;;;1.85;;
79212;SDS011;68639;52.380;9.822;2023-07-29T02:47:38;2.53;;;1.85;;
79212;SDS011;68639;52.380;9.822;2023-07-29T02:50:03;3.67;;;1.90;;
79212;SDS011;68639;52.380;9.822;2023-07-29T02:52:29;4.53;;;2.00;;
79212;SDS011;68639;52.380;9.822;2023-07-29T02:54:54;2.90;;;1.90;;
79212;SDS011;68639;52.380;9.822;2023-07-29T02:57:20;5.05;;;1.80;;
79212;SDS011;68639;52.380;9.822;2023-07-29T02:59:45;2.45;;;2.00;;
79212;SDS011;68639;52.380;9.822;2023-07-29T03:02:10;3.30;;;1.90;;
79212;SDS011;68639;52.380;9.822;2023-07-29T03:04:36;4.07;;;1.70;;
79212;SDS011;68639;52.380;9.822;2023-07-29T03:07:01;3.05;;;1.60;;
79212;SDS011;68639;52.380;9.822;2023-07-29T03:09:26;3.55;;;1.67;;
79212;SDS011;68639;52.380;9.822;2023-07-29T03:11:51;2.25;;;1.70;;
79212;SDS011;68639;52.380;9.822;2023-07-29T03:14:17;5.32;;;1.90;;
79212;SDS011;68639;52.380;9.822;2023-07-29T03:16:43;4.00;;;1.75;;
79212;SDS011;68639;52.380;9.822;2023-07-29T03:19:08;6.07;;;1.77;;
79212;SDS011;68639;52.380;9.822;2023-07-29T03:21:33;3.17;;;1.60;;
79212;SDS011;68639;52.380;9.822;2023-07-29T03:23:58;3.28;;;1.70;;
79212;SDS011;68639;52.380;9.822;2023-07-29T03:26:23;3.55;;;1.60;;
79212;SDS011;68639;52.380;9.822;2023-07-29T03:28:49;2.72;;;1.80;;
79212;SDS011;68639;52.380;9.822;2023-07-29T03:31:14;3.58;;;1.98;;
79212;SDS011;68639;52.380;9.822;2023-07-29T03:33:39;3.78;;;1.67;;
79212;SDS011;68639;52.380;9.822;2023-07-29T03:36:04;2.95;;;1.80;;
79212;SDS011;68639;52.380;9.822;2023-07-29T03:38:30;5.07;;;1.98;;
79212;SDS011;68639;52.380;9.822;2023-07-29T03:40:55;1.80;;;1.52;;
79212;SDS011;68639;52.380;9.822;2023-07-29T03:43:21;2.60;;;1.50;;
79212;SDS011;68639;52.380;9.822;2023-07-29T03:45:46;4.32;;;1.60;;
79212;SDS011;68639;52.380;9.822;2023-07-29T03:48:11;3.40;;;1.60;;
79212;SDS011;68639;52.380;9.822;2023-07-29T03:50:36;3.95;;;1.80;;
79212;SDS011;68639;52.380;9.822;2023-07-29T03:53:02;6.50;;;1.58;;
79212;SDS011;68639;52.380;9.822;2023-07-29T03:55:27;3.97;;;1.40;;
79212;SDS011;68639;52.380;9.822;2023-07-29T03:57:54;3.92;;;1.38;;
79212;SDS011;68639;52.380;9.822;2023-07-29T04:00:19;2.38;;;1.50;;
79212;SDS011;68639;52.380;9.822;2023-07-29T04:02:45;5.03;;;1.65;;
79212;SDS011;68639;52.380;9.822;2023-07-29T04:05:10;2.67;;;1.50;;
79212;SDS011;68639;52.380;9.822;2023-07-29T04:07:36;4.32;;;1.48;;
79212;SDS011;68639;52.380;9.822;2023-07-29T04:10:01;3.38;;;1.60;;
79212;SDS011;68639;52.380;9.822;2023-07-29T04:12:26;2.35;;;1.48;;
79212;SDS011;68639;52.380;9.822;2023-07-29T04:14:52;2.30;;;1.42;;
79212;SDS011;68639;52.380;9.822;2023-07-29T04:17:17;1.77;;;1.40;;
79212;SDS011;68639;52.380;9.822;2023-07-29T04:19:42;3.30;;;1.38;;
79212;SDS011;68639;52.380;9.822;2023-07-29T04:22:08;2.33;;;1.45;;
79212;SDS011;68639;52.380;9.822;2023-07-29T04:24:33;3.85;;;1.80;;
79212;SDS011;68639;52.380;9.822;2023-07-29T04:26:58;4.18;;;1.80;;
79212;SDS011;68639;52.380;9.822;2023-07-29T04:29:23;3.58;;;2.00;;
79212;SDS011;68639;52.380;9.822;2023-07-29T04:31:49;4.15;;;1.80;;
79212;SDS011;68639;52.380;9.822;2023-07-29T04:34:15;9.05;;;2.00;;
79212;SDS011;68639;52.380;9.822;2023-07-29T04:36:40;6.65;;;1.90;;
79212;SDS011;68639;52.380;9.822;2023-07-29T04:39:05;5.30;;;2.10;;
79212;SDS011;68639;52.380;9.822;2023-07-29T04:41:30;3.50;;;1.98;;
79212;SDS011;68639;52.380;9.822;2023-07-29T04:43:55;6.32;;;2.10;;
79212;SDS011;68639;52.380;9.822;2023-07-29T04:46:21;6.20;;;2.00;;
79212;SDS011;68639;52.380;9.822;2023-07-29T04:48:46;3.78;;;1.80;;
79212;SDS011;68639;52.380;9.822;2023-07-29T04:51:11;4.13;;;2.10;;
79212;SDS011;68639;52.380;9.822;2023-07-29T04:53:36;4.30;;;2.20;;
79212;SDS011;68639;52.380;9.822;2023-07-29T04:56:02;4.68;;;2.00;;
79212;SDS011;68639;52.380;9.822;2023-07-29T04:58:28;3.90;;;1.80;;
79212;SDS011;68639;52.380;9.822;2023-07-29T05:00:54;4.05;;;1.70;;
79212;SDS011;68639;52.380;9.822;2023-07-29T05:03:19;3.65;;;1.70;;
79212;SDS011;68639;52.380;9.822;2023-07-29T05:05:45;4.28;;;1.98;;
79212;SDS011;68639;52.380;9.822;2023-07-29T05:08:10;4.43;;;2.20;;
79212;SDS011;68639;52.380;9.822;2023-07-29T05:10:35;4.97;;;2.10;;
79212;SDS011;68639;52.380;9.822;2023-07-29T05:13:01;5.25;;;2.03;;
79212;SDS011;68639;52.380;9.822;2023-07-29T05:15:26;4.00;;;2.15;;
79212;SDS011;68639;52.380;9.822;2023-07-29T05:17:51;3.58;;;1.98;;
79212;SDS011;68639;52.380;9.822;2023-07-29T05:20:16;4.60;;;2.00;;
79212;SDS011;68639;52.380;9.822;2023-07-29T05:22:41;3.47;;;1.92;;
79212;SDS011;68639;52.380;9.822;2023-07-29T05:25:07;3.72;;;2.20;;
79212;SDS011;68639;52.380;9.822;2023-07-29T05:27:32;3.38;;;1.90;;
79212;SDS011;68639;52.380;9.822;2023-07-29T05:29:57;2.90;;;2.10;;
79212;SDS011;68639;52.380;9.822;2023-07-29T05:32:23;4.60;;;2.10;;
79212;SDS011;68639;52.380;9.822;2023-07-29T05:34:48;5.28;;;2.30;;
79212;SDS011;68639;52.380;9.822;2023-07-29T05:37:13;6.30;;;2.03;;
79212;SDS011;68639;52.380;9.822;2023-07-29T05:39:38;4.10;;;2.10;;
79212;SDS011;68639;52.380;9.822;2023-07-29T05:42:03;3.30;;;2.05;;
79212;SDS011;68639;52.380;9.822;2023-07-29T05:44:29;2.95;;;1.88;;
79212;SDS011;68639;52.380;9.822;2023-07-29T05:46:57;3.70;;;2.13;;
79212;SDS011;68639;52.380;9.822;2023-07-29T05:49:22;5.00;;;2.10;;
79212;SDS011;68639;52.380;9.822;2023-07-29T05:51:47;5.70;;;2.10;;
79212;SDS011;68639;52.380;9.822;2023-07-29T05:54:13;3.75;;;2.20;;
79212;SDS011;68639;52.380;9.822;2023-07-29T05:56:38;5.47;;;2.75;;
79212;SDS011;68639;52.380;9.822;2023-07-29T05:59:04;5.00;;;2.67;;
79212;SDS011;68639;52.380;9.822;2023-07-29T06:01:29;3.78;;;2.33;;
79212;SDS011;68639;52.380;9.822;2023-07-29T06:03:54;4.63;;;2.35;;
79212;SDS011;68639;52.380;9.822;2023-07-29T06:06:19;4.78;;;2.10;;
79212;SDS011;68639;52.380;9.822;2023-07-29T06:08:44;4.05;;;2.10;;
79212;SDS011;68639;52.380;9.822;2023-07-29T06:11:10;5.68;;;2.00;;
79212;SDS011;68639;52.380;9.822;2023-07-29T06:13:35;6.47;;;2.00;;
79212;SDS011;68639;52.380;9.822;2023-07-29T06:16:00;3.28;;;1.92;;
79212;SDS011;68639;52.380;9.822;2023-07-29T06:18:25;6.75;;;2.10;;
79212;SDS011;68639;52.380;9.822;2023-07-29T06:20:51;4.97;;;2.08;;
79212;SDS011;68639;52.380;9.822;2023-07-29T06:23:16;4.57;;;2.30;;
79212;SDS011;68639;52.380;9.822;2023-07-29T06:25:41;3.42;;;2.20;;
79212;SDS011;68639;52.380;9.822;2023-07-29T06:28:06;3.88;;;2.50;;
79212;SDS011;68639;52.380;9.822;2023-07-29T06:30:31;5.78;;;2.60;;
79212;SDS011;68639;52.380;9.822;2023-07-29T06:32:57;9.95;;;2.50;;
79212;SDS011;68639;52.380;9.822;2023-07-29T06:35:22;4.75;;;2.35;;
79212;SDS011;68639;52.380;9.822;2023-07-29T06:37:47;4.63;;;2.40;;
79212;SDS011;68639;52.380;9.822;2023-07-29T06:40:12;5.13;;;2.55;;
79212;SDS011;68639;52.380;9.822;2023-07-29T06:42:37;3.92;;;2.22;;
79212;SDS011;68639;52.380;9.822;2023-07-29T06:45:04;4.93;;;2.63;;
79212;SDS011;68639;52.380;9.822;2023-07-29T06:47:29;9.27;;;2.38;;
79212;SDS011;68639;52.380;9.822;2023-07-29T06:49:54;5.60;;;2.50;;
79212;SDS011;68639;52.380;9.822;2023-07-29T06:52:19;7.82;;;2.42;;
79212;SDS011;68639;52.380;9.822;2023-07-29T06:54:45;3.17;;;2.00;;
79212;SDS011;68639;52.380;9.822;2023-07-29T06:57:10;2.75;;;2.03;;
79212;SDS011;68639;52.380;9.822;2023-07-29T06:59:35;3.78;;;2.22;;
79212;SDS011;68639;52.380;9.822;2023-07-29T07:02:00;3.17;;;1.77;;
79212;SDS011;68639;52.380;9.822;2023-07-29T07:04:26;3.42;;;2.25;;
79212;SDS011;68639;52.380;9.822;2023-07-29T07:06:52;4.55;;;2.08;;
79212;SDS011;68639;52.380;9.822;2023-07-29T07:09:17;3.27;;;2.10;;
79212;SDS011;68639;52.380;9.822;2023-07-29T07:11:42;7.40;;;2.13;;
79212;SDS011;68639;52.380;9.822;2023-07-29T07:14:07;7.33;;;2.20;;
79212;SDS011;68639;52.380;9.822;2023-07-29T07:16:32;2.65;;;1.63;;
79212;SDS011;68639;52.380;9.822;2023-07-29T07:18:58;3.28;;;2.00;;
79212;SDS011;68639;52.380;9.822;2023-07-29T07:21:23;5.13;;;1.73;;
79212;SDS011;68639;52.380;9.822;2023-07-29T07:23:51;3.35;;;2.08;;
79212;SDS011;68639;52.380;9.822;2023-07-29T07:26:16;5.65;;;1.83;;
79212;SDS011;68639;52.380;9.822;2023-07-29T07:28:41;4.87;;;1.60;;
79212;SDS011;68639;52.380;9.822;2023-07-29T07:31:06;3.43;;;1.57;;
79212;SDS011;68639;52.380;9.822;2023-07-29T07:33:32;4.95;;;2.00;;
79212;SDS011;68639;52.380;9.822;2023-07-29T07:35:57;4.28;;;1.80;;
79212;SDS011;68639;52.380;9.822;2023-07-29T07:38:22;6.57;;;1.98;;
79212;SDS011;68639;52.380;9.822;2023-07-29T07:40:57;2.78;;;1.85;;
79212;SDS011;68639;52.380;9.822;2023-07-29T07:43:22;3.25;;;1.63;;
79212;SDS011;68639;52.380;9.822;2023-07-29T07:45:47;4.50;;;1.85;;
79212;SDS011;68639;52.380;9.822;2023-07-29T07:48:12;7.13;;;1.90;;
79212;SDS011;68639;52.380;9.822;2023-07-29T07:50:38;3.10;;;1.60;;
79212;SDS011;68639;52.380;9.822;2023-07-29T07:53:03;2.75;;;1.45;;
79212;SDS011;68639;52.380;9.822;2023-07-29T07:55:28;4.13;;;1.50;;
79212;SDS011;68639;52.380;9.822;2023-07-29T07:57:54;2.93;;;1.77;;
79212;SDS011;68639;52.380;9.822;2023-07-29T08:00:20;3.58;;;1.58;;
79212;SDS011;68639;52.380;9.822;2023-07-29T08:02:45;4.03;;;2.03;;
79212;SDS011;68639;52.380;9.822;2023-07-29T08:05:10;3.35;;;1.65;;
79212;SDS011;68639;52.380;9.822;2023-07-29T08:07:35;3.38;;;1.52;;
79212;SDS011;68639;52.380;9.822;2023-07-29T08:10:01;2.63;;;1.50;;
79212;SDS011;68639;52.380;9.822;2023-07-29T08:12:26;2.90;;;1.35;;
79212;SDS011;68639;52.380;9.822;2023-07-29T08:14:51;4.63;;;1.48;;
79212;SDS011;68639;52.380;9.822;2023-07-29T08:17:16;4.18;;;1.42;;
79212;SDS011;68639;52.380;9.822;2023-07-29T08:19:41;6.18;;;1.50;;
79212;SDS011;68639;52.380;9.822;2023-07-29T08:22:07;2.93;;;1.10;;
79212;SDS011;68639;52.380;9.822;2023-07-29T08:24:32;4.90;;;1.35;;
79212;SDS011;68639;52.380;9.822;2023-07-29T08:26:57;3.22;;;1.48;;
79212;SDS011;68639;52.380;9.822;2023-07-29T08:29:22;3.83;;;1.58;;
79212;SDS011;68639;52.380;9.822;2023-07-29T08:31:47;6.47;;;1.63;;
79212;SDS011;68639;52.380;9.822;2023-07-29T08:34:13;4.25;;;1.42;;
79212;SDS011;68639;52.380;9.822;2023-07-29T08:36:39;4.88;;;1.55;;
79212;SDS011;68639;52.380;9.822;2023-07-29T08:39:04;2.47;;;1.30;;
79212;SDS011;68639;52.380;9.822;2023-07-29T08:41:31;4.50;;;1.50;;
79212;SDS011;68639;52.380;9.822;2023-07-29T08:46:59;4.72;;;1.80;;
79212;SDS011;68639;52.380;9.822;2023-07-29T08:49:24;3.40;;;2.03;;
79212;SDS011;68639;52.380;9.822;2023-07-29T08:51:51;2.67;;;1.90;;
79212;SDS011;68639;52.380;9.822;2023-07-29T08:54:18;3.28;;;1.67;;
79212;SDS011;68639;52.380;9.822;2023-07-29T08:56:43;4.80;;;2.22;;
79212;SDS011;68639;52.380;9.822;2023-07-29T08:59:09;4.97;;;2.17;;
79212;SDS011;68639;52.380;9.822;2023-07-29T09:01:35;2.65;;;2.00;;
79212;SDS011;68639;52.380;9.822;2023-07-29T09:04:01;3.78;;;2.00;;
79212;SDS011;68639;52.380;9.822;2023-07-29T09:06:26;4.43;;;1.87;;
79212;SDS011;68639;52.380;9.822;2023-07-29T09:08:53;3.08;;;1.70;;
79212;SDS011;68639;52.380;9.822;2023-07-29T09:11:18;3.67;;;2.00;;
79212;SDS011;68639;52.380;9.822;2023-07-29T09:13:44;4.93;;;1.77;;
79212;SDS011;68639;52.380;9.822;2023-07-29T09:16:09;2.67;;;1.92;;
79212;SDS011;68639;52.380;9.822;2023-07-29T09:18:34;3.28;;;1.70;;
79212;SDS011;68639;52.380;9.822;2023-07-29T09:21:00;2.75;;;1.80;;
79212;SDS011;68639;52.380;9.822;2023-07-29T09:23:26;4.47;;;1.58;;
79212;SDS011;68639;52.380;9.822;2023-07-29T09:25:53;3.42;;;1.60;;
79212;SDS011;68639;52.380;9.822;2023-07-29T09:28:25;2.33;;;1.20;;
79212;SDS011;68639;52.380;9.822;2023-07-29T09:30:50;4.85;;;1.38;;
79212;SDS011;68639;52.380;9.822;2023-07-29T09:33:16;3.08;;;1.70;;
79212;SDS011;68639;52.380;9.822;2023-07-29T09:35:42;2.53;;;1.48;;
79212;SDS011;68639;52.380;9.822;2023-07-29T09:38:09;4.28;;;1.70;;
79212;SDS011;68639;52.380;9.822;2023-07-29T09:40:39;3.58;;;1.80;;
79212;SDS011;68639;52.380;9.822;2023-07-29T09:43:05;2.08;;;1.50;;
79212;SDS011;68639;52.380;9.822;2023-07-29T09:45:33;5.20;;;1.92;;
79212;SDS011;68639;52.380;9.822;2023-07-29T09:47:58;5.03;;;2.25;;
79212;SDS011;68639;52.380;9.822;2023-07-29T09:50:24;2.47;;;1.85;;
79212;SDS011;68639;52.380;9.822;2023-07-29T09:52:50;2.78;;;2.10;;
79212;SDS011;68639;52.380;9.822;2023-07-29T09:55:17;5.57;;;2.80;;
79212;SDS011;68639;52.380;9.822;2023-07-29T09:57:42;3.33;;;2.38;;
79212;SDS011;68639;52.380;9.822;2023-07-29T10:00:10;5.00;;;2.92;;
79212;SDS011;68639;52.380;9.822;2023-07-29T10:02:36;4.95;;;3.20;;
79212;SDS011;68639;52.380;9.822;2023-07-29T10:05:01;6.28;;;4.75;;
79212;SDS011;68639;52.380;9.822;2023-07-29T10:07:28;7.25;;;5.13;;
79212;SDS011;68639;52.380;9.822;2023-07-29T10:09:54;7.60;;;5.60;;
79212;SDS011;68639;52.380;9.822;2023-07-29T10:12:19;7.13;;;5.53;;
79212;SDS011;68639;52.380;9.822;2023-07-29T10:14:45;8.38;;;5.72;;
79212;SDS011;68639;52.380;9.822;2023-07-29T10:17:11;8.23;;;5.45;;
79212;SDS011;68639;52.380;9.822;2023-07-29T10:19:36;7.47;;;4.70;;
79212;SDS011;68639;52.380;9.822;2023-07-29T10:22:02;8.55;;;5.10;;
79212;SDS011;68639;52.380;9.822;2023-07-29T10:24:32;7.03;;;5.65;;
79212;SDS011;68639;52.380;9.822;2023-07-29T10:26:58;8.35;;;5.35;;
79212;SDS011;68639;52.380;9.822;2023-07-29T10:29:24;8.00;;;6.00;;
79212;SDS011;68639;52.380;9.822;2023-07-29T10:31:51;6.85;;;5.03;;
79212;SDS011;68639;52.380;9.822;2023-07-29T10:34:17;5.75;;;4.57;;
79212;SDS011;68639;52.380;9.822;2023-07-29T10:36:42;6.68;;;4.50;;
79212;SDS011;68639;52.380;9.822;2023-07-29T10:39:08;7.90;;;4.10;;
79212;SDS011;68639;52.380;9.822;2023-07-29T10:41:54;5.63;;;4.35;;
79212;SDS011;68639;52.380;9.822;2023-07-29T10:47:10;6.35;;;3.55;;
79212;SDS011;68639;52.380;9.822;2023-07-29T10:49:35;7.20;;;3.67;;
79212;SDS011;68639;52.380;9.822;2023-07-29T10:52:01;5.73;;;3.20;;
79212;SDS011;68639;52.380;9.822;2023-07-29T10:54:26;4.75;;;3.05;;
79212;SDS011;68639;52.380;9.822;2023-07-29T10:56:52;6.30;;;3.10;;
79212;SDS011;68639;52.380;9.822;2023-07-29T11:01:52;4.33;;;2.20;;
79212;SDS011;68639;52.380;9.822;2023-07-29T11:14:54;4.32;;;1.90;;
79212;SDS011;68639;52.380;9.822;2023-07-29T11:17:19;4.57;;;1.80;;
79212;SDS011;68639;52.380;9.822;2023-07-29T11:19:44;6.13;;;1.70;;
79212;SDS011;68639;52.380;9.822;2023-07-29T11:22:11;3.70;;;2.00;;
79212;SDS011;68639;52.380;9.822;2023-07-29T11:24:36;4.80;;;1.80;;
79212;SDS011;68639;52.380;9.822;2023-07-29T11:27:01;3.40;;;2.10;;
79212;SDS011;68639;52.380;9.822;2023-07-29T11:29:27;3.70;;;1.83;;
79212;SDS011;68639;52.380;9.822;2023-07-29T11:31:52;7.78;;;1.90;;
79212;SDS011;68639;52.380;9.822;2023-07-29T11:34:17;2.80;;;1.90;;
79212;SDS011;68639;52.380;9.822;2023-07-29T11:36:45;3.65;;;1.77;;
79212;SDS011;68639;52.380;9.822;2023-07-29T11:39:11;3.80;;;1.70;;
79212;SDS011;68639;52.380;9.822;2023-07-29T11:41:36;2.42;;;1.50;;
79212;SDS011;68639;52.380;9.822;2023-07-29T11:44:02;5.95;;;1.70;;
79212;SDS011;68639;52.380;9.822;2023-07-29T11:46:27;2.35;;;1.40;;
79212;SDS011;68639;52.380;9.822;2023-07-29T11:48:53;4.22;;;1.40;;
79212;SDS011;68639;52.380;9.822;2023-07-29T11:51:18;2.23;;;1.00;;
79212;SDS011;68639;52.380;9.822;2023-07-29T11:53:44;5.30;;;1.10;;
79212;SDS011;68639;52.380;9.822;2023-07-29T11:56:09;5.07;;;1.10;;
79212;SDS011;68639;52.380;9.822;2023-07-29T11:58:36;2.15;;;0.80;;
79212;SDS011;68639;52.380;9.822;2023-07-29T12:01:01;1.73;;;0.70;;
79212;SDS011;68639;52.380;9.822;2023-07-29T12:03:26;3.20;;;0.68;;
79212;SDS011;68639;52.380;9.822;2023-07-29T12:05:52;2.50;;;0.60;;
79212;SDS011;68639;52.380;9.822;2023-07-29T12:08:17;1.40;;;0.65;;
79212;SDS011;68639;52.380;9.822;2023-07-29T12:10:42;1.00;;;0.60;;
79212;SDS011;68639;52.380;9.822;2023-07-29T12:13:08;2.53;;;0.63;;
79212;SDS011;68639;52.380;9.822;2023-07-29T12:15:34;1.48;;;0.70;;
79212;SDS011;68639;52.380;9.822;2023-07-29T12:17:59;1.15;;;0.70;;
79212;SDS011;68639;52.380;9.822;2023-07-29T12:20:25;1.67;;;0.70;;
79212;SDS011;68639;52.380;9.822;2023-07-29T12:22:57;0.70;;;0.40;;
79212;SDS011;68639;52.380;9.822;2023-07-29T12:25:22;1.70;;;0.65;;
79212;SDS011;68639;52.380;9.822;2023-07-29T12:27:48;4.90;;;1.00;;
79212;SDS011;68639;52.380;9.822;2023-07-29T12:30:13;1.40;;;0.80;;
79212;SDS011;68639;52.380;9.822;2023-07-29T12:32:45;2.20;;;1.00;;
79212;SDS011;68639;52.380;9.822;2023-07-29T12:35:11;2.85;;;0.82;;
79212;SDS011;68639;52.380;9.822;2023-07-29T12:37:36;1.52;;;0.80;;
79212;SDS011;68639;52.380;9.822;2023-07-29T12:40:03;3.70;;;0.80;;
79212;SDS011;68639;52.380;9.822;2023-07-29T12:42:29;1.23;;;0.63;;
79212;SDS011;68639;52.380;9.822;2023-07-29T12:44:54;6.45;;;0.80;;
79212;SDS011;68639;52.380;9.822;2023-07-29T12:47:19;1.10;;;0.60;;
79212;SDS011;68639;52.380;9.822;2023-07-29T12:49:44;1.20;;;0.70;;
79212;SDS011;68639;52.380;9.822;2023-07-29T12:52:09;1.43;;;0.80;;
79212;SDS011;68639;52.380;9.822;2023-07-29T12:54:35;1.75;;;0.70;;
79212;SDS011;68639;52.380;9.822;2023-07-29T12:57:00;1.00;;;0.50;;
79212;SDS011;68639;52.380;9.822;2023-07-29T12:59:25;1.60;;;0.60;;
79212;SDS011;68639;52.380;9.822;2023-07-29T13:01:50;2.77;;;0.60;;
79212;SDS011;68639;52.380;9.822;2023-07-29T13:04:15;3.10;;;0.60;;
79212;SDS011;68639;52.380;9.822;2023-07-29T13:06:41;1.17;;;0.60;;
79212;SDS011;68639;52.380;9.822;2023-07-29T13:09:06;0.80;;;0.50;;
79212;SDS011;68639;52.380;9.822;2023-07-29T13:11:31;2.55;;;0.70;;
79212;SDS011;68639;52.380;9.822;2023-07-29T13:13:57;1.55;;;0.60;;
79212;SDS011;68639;52.380;9.822;2023-07-29T13:16:22;1.40;;;0.60;;
79212;SDS011;68639;52.380;9.822;2023-07-29T13:18:48;1.83;;;0.60;;
79212;SDS011;68639;52.380;9.822;2023-07-29T13:21:13;0.90;;;0.50;;
79212;SDS011;68639;52.380;9.822;2023-07-29T13:23:38;2.43;;;0.60;;
79212;SDS011;68639;52.380;9.822;2023-07-29T13:26:03;2.15;;;0.75;;
79212;SDS011;68639;52.380;9.822;2023-07-29T13:28:28;1.52;;;0.60;;
79212;SDS011;68639;52.380;9.822;2023-07-29T13:30:54;1.07;;;0.60;;
79212;SDS011;68639;52.380;9.822;2023-07-29T13:33:19;2.45;;;0.65;;
79212;SDS011;68639;52.380;9.822;2023-07-29T13:35:44;3.22;;;0.80;;
79212;SDS011;68639;52.380;9.822;2023-07-29T13:38:09;1.23;;;0.70;;
79212;SDS011;68639;52.380;9.822;2023-07-29T13:40:36;2.42;;;0.70;;
79212;SDS011;68639;52.380;9.822;2023-07-29T13:43:01;1.20;;;0.70;;
79212;SDS011;68639;52.380;9.822;2023-07-29T13:45:26;1.40;;;0.60;;
79212;SDS011;68639;52.380;9.822;2023-07-29T13:47:52;1.95;;;0.70;;
79212;SDS011;68639;52.380;9.822;2023-07-29T13:50:17;1.90;;;0.70;;
79212;SDS011;68639;52.380;9.822;2023-07-29T13:52:43;2.15;;;0.60;;
79212;SDS011;68639;52.380;9.822;2023-07-29T13:55:08;1.13;;;0.68;;
79212;SDS011;68639;52.380;9.822;2023-07-29T13:57:33;1.38;;;0.70;;
79212;SDS011;68639;52.380;9.822;2023-07-29T13:59:58;1.70;;;0.70;;
79212;SDS011;68639;52.380;9.822;2023-07-29T14:02:24;0.82;;;0.55;;
79212;SDS011;68639;52.380;9.822;2023-07-29T14:04:51;0.80;;;0.60;;
79212;SDS011;68639;52.380;9.822;2023-07-29T14:07:16;0.70;;;0.50;;
79212;SDS011;68639;52.380;9.822;2023-07-29T14:09:41;3.43;;;0.83;;
79212;SDS011;68639;52.380;9.822;2023-07-29T14:12:08;2.60;;;0.55;;
79212;SDS011;68639;52.380;9.822;2023-07-29T14:14:33;1.17;;;0.60;;
79212;SDS011;68639;52.380;9.822;2023-07-29T14:16:58;3.30;;;0.77;;
79212;SDS011;68639;52.380;9.822;2023-07-29T14:19:23;4.60;;;0.60;;
79212;SDS011;68639;52.380;9.822;2023-07-29T14:21:49;2.38;;;0.90;;
79212;SDS011;68639;52.380;9.822;2023-07-29T14:24:14;1.73;;;0.73;;
79212;SDS011;68639;52.380;9.822;2023-07-29T14:26:40;3.35;;;0.63;;
79212;SDS011;68639;52.380;9.822;2023-07-29T14:29:05;1.10;;;0.70;;
79212;SDS011;68639;52.380;9.822;2023-07-29T14:31:30;1.27;;;0.70;;
79212;SDS011;68639;52.380;9.822;2023-07-29T14:33:55;1.07;;;0.60;;
79212;SDS011;68639;52.380;9.822;2023-07-29T14:36:21;1.60;;;0.60;;
79212;SDS011;68639;52.380;9.822;2023-07-29T14:38:46;1.53;;;0.70;;
79212;SDS011;68639;52.380;9.822;2023-07-29T14:41:11;1.03;;;0.60;;
79212;SDS011;68639;52.380;9.822;2023-07-29T14:43:36;0.87;;;0.47;;
79212;SDS011;68639;52.380;9.822;2023-07-29T14:46:01;5.80;;;0.70;;
79212;SDS011;68639;52.380;9.822;2023-07-29T14:48:27;1.55;;;0.60;;
79212;SDS011;68639;52.380;9.822;2023-07-29T14:50:52;1.20;;;0.60;;
79212;SDS011;68639;52.380;9.822;2023-07-29T14:53:17;0.93;;;0.55;;
79212;SDS011;68639;52.380;9.822;2023-07-29T14:55:43;1.80;;;0.70;;
79212;SDS011;68639;52.380;9.822;2023-07-29T14:58:08;1.13;;;0.80;;
79212;SDS011;68639;52.380;9.822;2023-07-29T15:00:33;3.10;;;0.90;;
79212;SDS011;68639;52.380;9.822;2023-07-29T15:02:58;1.60;;;1.05;;